Time;durP1;ratioP1;P1;durP2;ratioP2;P2;SDS_P1;SDS_P2;PMS_P1;PMS_P2;Temp;Humidity;BMP_temperature;BMP_pressure;BME280_temperature;BME280_humidity;BME280_pressure;Samples;Min_cycle;Max_cycle;Signal;HPM_P1;HPM_P2
2023/06/01 00:02:03;;;;;;;0.30;0.30;;;11.90;81.70;;;;;;5029180;28;20418;-67
2023/06/01 00:04:29;;;;;;;0.08;0.08;;;11.90;81.60;;;;;;5011591;28;20045;-67
2023/06/01 00:06:54;;;;;;;0.00;0.00;;;11.90;81.40;;;;;;5011252;28;20095;-67
2023/06/01 00:09:20;;;;;;;0.30;0.30;;;11.90;81.40;;;;;;5029784;28;20038;-68
2023/06/01 00:11:46;;;;;;;0.00;0.00;;;11.90;81.30;;;;;;5029924;28;20041;-68
2023/06/01 00:14:11;;;;;;;0.00;0.00;;;11.80;81.10;;;;;;5030113;28;20076;-68
2023/06/01 00:16:37;;;;;;;0.00;0.00;;;11.80;81.30;;;;;;5029158;28;20063;-68
2023/06/01 00:19:03;;;;;;;0.13;0.13;;;11.80;81.50;;;;;;5028937;28;20495;-68
2023/06/01 00:21:35;;;;;;;0.20;0.20;;;11.80;81.60;;;;;;5028650;28;20069;-68
2023/06/01 00:24:00;;;;;;;;;;;11.80;81.50;;;;;;5003036;28;20062;-69
2023/06/01 00:26:26;;;;;;;0.00;0.00;;;11.80;81.80;;;;;;4994770;28;20409;-68
2023/06/01 00:28:52;;;;;;;0.00;0.00;;;11.70;82.00;;;;;;5028700;28;20556;-67
2023/06/01 00:31:17;;;;;;;0.00;0.00;;;11.80;81.90;;;;;;5028445;28;20045;-67
2023/06/01 00:33:43;;;;;;;0.00;0.00;;;11.70;81.80;;;;;;5028212;28;20037;-68
2023/06/01 00:36:08;;;;;;;0.90;0.90;;;11.70;81.70;;;;;;5029018;28;20042;-67
2023/06/01 00:38:34;;;;;;;1.15;1.02;;;11.70;81.60;;;;;;5024140;28;20144;-67
2023/06/01 00:41:00;;;;;;;0.52;0.52;;;11.80;81.40;;;;;;5028825;28;20041;-68
2023/06/01 00:43:25;;;;;;;0.55;0.55;;;11.70;81.30;;;;;;5028603;28;20076;-68
2023/06/01 00:45:51;;;;;;;0.55;0.55;;;11.60;81.30;;;;;;4996618;28;20057;-68
2023/06/01 00:48:18;;;;;;;0.00;0.00;;;11.60;81.30;;;;;;5032951;28;20046;-67
2023/06/01 00:50:44;;;;;;;0.43;0.43;;;11.60;81.40;;;;;;5032755;28;20033;-68
2023/06/01 00:53:16;;;;;;;0.32;0.32;;;11.60;81.40;;;;;;5030947;28;20038;-68
2023/06/01 00:55:42;;;;;;;0.00;0.00;;;11.60;81.20;;;;;;5011953;28;20072;-68
2023/06/01 00:58:07;;;;;;;0.00;0.00;;;11.60;81.20;;;;;;5032910;28;20590;-67
2023/06/01 01:00:33;;;;;;;0.00;0.00;;;11.60;81.40;;;;;;5032627;28;20888;-68
2023/06/01 01:03:07;;;;;;;0.00;0.00;;;11.60;81.50;;;;;;5032781;28;20044;-67
2023/06/01 01:05:34;;;;;;;4.07;1.45;;;11.60;81.40;;;;;;4998635;28;20836;-69
2023/06/01 01:08:11;;;;;;;0.00;0.00;;;11.60;81.40;;;;;;5030234;28;20207;-67
2023/06/01 01:10:48;;;;;;;1.55;1.23;;;11.60;81.60;;;;;;5005175;28;20041;-68
2023/06/01 01:13:26;;;;;;;0.00;0.00;;;11.60;81.70;;;;;;5032340;28;20057;-67
2023/06/01 01:16:00;;;;;;;0.00;0.00;;;11.50;81.40;;;;;;5031975;28;20132;-68
2023/06/01 01:18:32;;;;;;;0.00;0.00;;;11.50;81.80;;;;;;5032201;28;20568;-67
2023/06/01 01:21:01;;;;;;;2.20;1.27;;;11.50;81.80;;;;;;5031918;28;20891;-68
2023/06/01 01:23:58;;;;;;;0.00;0.00;;;11.50;81.90;;;;;;5003067;28;20045;-68
2023/06/01 01:26:34;;;;;;;0.32;0.20;;;11.50;81.80;;;;;;5014987;28;20045;-67
2023/06/01 01:29:11;;;;;;;0.00;0.00;;;11.50;82.00;;;;;;5032107;28;20046;-68
2023/06/01 01:31:39;;;;;;;0.00;0.00;;;11.60;82.30;;;;;;5031664;28;20091;-67
2023/06/01 01:34:07;;;;;;;0.10;0.10;;;11.60;82.10;;;;;;5031529;28;20441;-68
2023/06/01 01:36:33;;;;;;;0.00;0.00;;;11.60;82.10;;;;;;5014724;28;20085;-67
2023/06/01 01:38:59;;;;;;;0.00;0.00;;;11.60;82.10;;;;;;5014134;28;20041;-68
2023/06/01 01:41:25;;;;;;;0.00;0.00;;;11.60;81.90;;;;;;4992046;28;20045;-68
2023/06/01 01:43:52;;;;;;;0.00;0.00;;;11.60;81.70;;;;;;5031631;28;20053;-67
2023/06/01 01:46:32;;;;;;;0.00;0.00;;;11.60;81.70;;;;;;5014402;28;20095;-67
2023/06/01 01:49:18;;;;;;;0.08;0.08;;;11.60;81.90;;;;;;5031653;28;20128;-68
2023/06/01 01:51:55;;;;;;;0.10;0.10;;;11.70;81.90;;;;;;5031627;28;20044;-68
2023/06/01 01:54:23;;;;;;;0.60;0.45;;;11.60;82.00;;;;;;5028728;28;20052;-69
2023/06/01 01:56:50;;;;;;;1.02;0.98;;;11.60;82.00;;;;;;5031210;28;20128;-68
2023/06/01 01:59:16;;;;;;;0.00;0.00;;;11.70;82.00;;;;;;5031784;28;20045;-68
2023/06/01 02:01:44;;;;;;;0.00;0.00;;;11.60;81.80;;;;;;5031420;28;20068;-69
2023/06/01 02:04:10;;;;;;;0.00;0.00;;;11.70;81.70;;;;;;4997858;28;20050;-69
2023/06/01 02:06:36;;;;;;;2.90;1.40;;;11.60;81.70;;;;;;5031471;28;20037;-68
2023/06/01 02:09:06;;;;;;;0.15;0.15;;;11.60;81.70;;;;;;5011171;28;20095;-69
2023/06/01 02:11:32;;;;;;;0.00;0.00;;;11.60;81.80;;;;;;5019273;28;20050;-69
2023/06/01 02:13:58;;;;;;;0.00;0.00;;;11.60;81.90;;;;;;5031559;28;20042;-70
2023/06/01 02:16:23;;;;;;;0.00;0.00;;;11.60;81.70;;;;;;5031582;28;20464;-69
2023/06/01 02:18:50;;;;;;;0.20;0.20;;;11.60;81.70;;;;;;5013534;28;20045;-69
2023/06/01 02:21:15;;;;;;;0.00;0.00;;;11.60;81.50;;;;;;5030865;28;20057;-68
2023/06/01 02:23:42;;;;;;;0.00;0.00;;;11.60;81.50;;;;;;5030929;28;20049;-68
2023/06/01 02:26:08;;;;;;;0.00;0.00;;;11.60;81.40;;;;;;5013248;28;20526;-68
2023/06/01 02:28:35;;;;;;;0.00;0.00;;;11.60;81.50;;;;;;5018615;28;20092;-68
2023/06/01 02:31:01;;;;;;;0.00;0.00;;;11.60;81.40;;;;;;5030748;28;20752;-68
2023/06/01 02:33:27;;;;;;;0.10;0.10;;;11.60;81.50;;;;;;5030926;28;20045;-69
2023/06/01 02:35:53;;;;;;;0.00;0.00;;;11.60;81.50;;;;;;5031365;28;20049;-69
2023/06/01 02:38:18;;;;;;;0.00;0.00;;;11.60;81.50;;;;;;5026644;28;20413;-70
2023/06/01 02:40:44;;;;;;;0.10;0.10;;;11.60;81.50;;;;;;5030678;28;20049;-68
2023/06/01 02:43:10;;;;;;;0.45;0.30;;;11.60;81.70;;;;;;5030679;28;20099;-68
2023/06/01 02:45:35;;;;;;;0.00;0.00;;;11.60;81.70;;;;;;5030640;28;20450;-68
2023/06/01 02:48:01;;;;;;;0.00;0.00;;;11.60;81.90;;;;;;5030683;28;20057;-68
2023/06/01 02:50:26;;;;;;;0.00;0.00;;;11.60;81.80;;;;;;5012834;28;20042;-68
2023/06/01 02:52:52;;;;;;;0.00;0.00;;;11.60;81.60;;;;;;5030221;28;20041;-68
2023/06/01 02:55:18;;;;;;;0.00;0.00;;;11.60;81.30;;;;;;5012524;28;20045;-68
2023/06/01 02:57:43;;;;;;;0.00;0.00;;;11.60;81.20;;;;;;5030881;28;20136;-68
2023/06/01 03:00:15;;;;;;;0.00;0.00;;;11.60;81.10;;;;;;5030544;28;20160;-68
2023/06/01 03:02:47;;;;;;;0.20;0.20;;;11.60;81.10;;;;;;5030515;28;20045;-68
2023/06/01 03:05:14;;;;;;;;;;;11.60;81.10;;;;;;5030663;28;20050;-68
2023/06/01 03:07:40;;;;;;;0.10;0.10;;;11.60;81.30;;;;;;5021776;28;19975;-68
2023/06/01 03:10:07;;;;;;;0.00;0.00;;;11.60;81.30;;;;;;5023627;28;20057;-68
2023/06/01 03:12:32;;;;;;;0.00;0.00;;;11.60;81.00;;;;;;5013068;28;20045;-68
2023/06/01 03:14:58;;;;;;;0.00;0.00;;;11.60;80.70;;;;;;5030025;28;20079;-68
2023/06/01 03:17:24;;;;;;;0.00;0.00;;;11.60;80.90;;;;;;5030548;28;20073;-68
2023/06/01 03:19:50;;;;;;;0.00;0.00;;;11.60;81.10;;;;;;5030282;28;20048;-68
2023/06/01 03:22:16;;;;;;;0.00;0.00;;;11.60;81.10;;;;;;4995951;28;20053;-68
2023/06/01 03:24:41;;;;;;;0.00;0.00;;;11.60;81.30;;;;;;5030097;28;20140;-68
2023/06/01 03:27:08;;;;;;;0.00;0.00;;;11.60;81.30;;;;;;5026229;28;20053;-69
2023/06/01 03:29:33;;;;;;;0.00;0.00;;;11.60;81.30;;;;;;5011997;28;20088;-68
2023/06/01 03:31:59;;;;;;;0.00;0.00;;;11.60;81.30;;;;;;5029994;28;20072;-68
2023/06/01 03:34:27;;;;;;;0.00;0.00;;;11.60;81.20;;;;;;5011444;28;20487;-68
2023/06/01 03:36:53;;;;;;;0.00;0.00;;;11.60;81.30;;;;;;4995930;28;20112;-69
2023/06/01 03:39:18;;;;;;;0.00;0.00;;;11.60;81.40;;;;;;5029871;28;20073;-68
2023/06/01 03:41:44;;;;;;;0.05;0.05;;;11.60;81.30;;;;;;5027757;28;20092;-69
2023/06/01 03:44:11;;;;;;;0.10;0.10;;;11.70;81.30;;;;;;5026213;28;20053;-68
2023/06/01 03:46:37;;;;;;;0.10;0.10;;;11.70;81.20;;;;;;5012146;28;20049;-68
2023/06/01 03:49:04;;;;;;;0.10;0.10;;;11.70;81.10;;;;;;5011894;28;20049;-68
2023/06/01 03:51:30;;;;;;;0.00;0.00;;;11.70;81.10;;;;;;5025919;28;20094;-68
2023/06/01 03:53:57;;;;;;;0.00;0.00;;;11.70;81.20;;;;;;5029091;28;20042;-68
2023/06/01 03:56:22;;;;;;;0.00;0.00;;;11.70;81.20;;;;;;5026412;28;20048;-69
2023/06/01 03:58:49;;;;;;;0.00;0.00;;;11.80;80.70;;;;;;5028848;28;20037;-68
2023/06/01 04:01:19;;;;;;;0.00;0.00;;;11.80;80.50;;;;;;5029134;28;20107;-69
2023/06/01 04:03:48;;;;;;;0.00;0.00;;;11.60;80.50;;;;;;4995350;28;20080;-68
2023/06/01 04:06:17;;;;;;;0.00;0.00;;;11.70;80.40;;;;;;5029121;28;20095;-68
2023/06/01 04:08:48;;;;;;;0.00;0.00;;;11.60;80.50;;;;;;5029185;28;20128;-68
2023/06/01 04:11:17;;;;;;;0.00;0.00;;;11.60;80.60;;;;;;5028283;28;20099;-68
2023/06/01 04:13:46;;;;;;;0.00;0.00;;;11.70;80.70;;;;;;4997850;28;20119;-68
2023/06/01 04:16:11;;;;;;;0.00;0.00;;;11.70;80.80;;;;;;5003899;28;20058;-68
2023/06/01 04:18:37;;;;;;;0.00;0.00;;;11.70;80.70;;;;;;5006656;28;20050;-69
2023/06/01 04:21:03;;;;;;;0.55;0.50;;;11.80;80.70;;;;;;5002522;28;20054;-69
2023/06/01 04:23:29;;;;;;;0.00;0.00;;;11.80;80.70;;;;;;4984932;28;20068;-69
2023/06/01 04:25:58;;;;;;;0.00;0.00;;;11.80;80.80;;;;;;5001402;28;20578;-69
2023/06/01 04:28:24;;;;;;;0.00;0.00;;;11.80;80.80;;;;;;5003314;28;20050;-69
2023/06/01 04:30:51;;;;;;;0.10;0.10;;;11.90;81.00;;;;;;5002899;28;20135;-69
2023/06/01 04:33:17;;;;;;;0.00;0.00;;;11.90;81.00;;;;;;5005508;28;20045;-70
2023/06/01 04:35:43;;;;;;;0.00;0.00;;;11.90;80.70;;;;;;5002375;28;20466;-68
2023/06/01 04:38:09;;;;;;;0.00;0.00;;;11.90;80.50;;;;;;4976083;28;20042;-68
2023/06/01 04:40:35;;;;;;;0.00;0.00;;;11.90;80.40;;;;;;4995778;28;20049;-68
2023/06/01 04:43:02;;;;;;;0.38;0.38;;;11.90;80.50;;;;;;4997735;28;20049;-70
2023/06/01 04:45:33;;;;;;;0.00;0.00;;;11.90;80.40;;;;;;4999417;28;20502;-68
2023/06/01 04:47:59;;;;;;;0.00;0.00;;;11.90;80.40;;;;;;4999446;28;20556;-68
2023/06/01 04:50:28;;;;;;;0.00;0.00;;;11.90;80.40;;;;;;5008284;28;20057;-68
2023/06/01 04:52:55;;;;;;;0.00;0.00;;;11.90;80.40;;;;;;5008942;28;20066;-69
2023/06/01 04:55:20;;;;;;;0.00;0.00;;;11.90;80.20;;;;;;5006589;28;20054;-68
2023/06/01 04:57:46;;;;;;;0.10;0.10;;;12.00;80.00;;;;;;5007148;28;20038;-68
2023/06/01 05:00:17;;;;;;;0.00;0.00;;;12.00;79.70;;;;;;5008686;28;20117;-68
2023/06/01 05:02:44;;;;;;;0.00;0.00;;;11.90;79.60;;;;;;5004506;28;20042;-68
2023/06/01 05:05:10;;;;;;;0.00;0.00;;;11.90;79.60;;;;;;5007502;28;20042;-69
2023/06/01 05:07:37;;;;;;;0.00;0.00;;;11.90;79.60;;;;;;5007024;28;20054;-68
2023/06/01 05:10:07;;;;;;;0.00;0.00;;;11.90;79.50;;;;;;5006837;28;20441;-69
2023/06/01 05:12:33;;;;;;;0.10;0.10;;;11.90;79.40;;;;;;5006467;28;20050;-69
2023/06/01 05:15:00;;;;;;;0.10;0.10;;;11.90;79.40;;;;;;5008366;28;20077;-68
2023/06/01 05:17:26;;;;;;;0.22;0.22;;;11.90;79.70;;;;;;5026404;28;20100;-69
2023/06/01 05:19:52;;;;;;;0.00;0.00;;;11.90;79.60;;;;;;5027757;28;20053;-69
2023/06/01 05:22:17;;;;;;;9.38;1.23;;;12.00;79.60;;;;;;5027953;28;20061;-68
2023/06/01 05:24:43;;;;;;;0.00;0.00;;;12.00;79.70;;;;;;5027209;28;20052;-69
2023/06/01 05:27:08;;;;;;;0.00;0.00;;;12.00;79.80;;;;;;5020808;28;20061;-69
2023/06/01 05:29:34;;;;;;;0.03;0.03;;;12.00;79.90;;;;;;5008990;28;20085;-69
2023/06/01 05:32:00;;;;;;;0.00;0.00;;;12.00;79.90;;;;;;5019292;28;20068;-69
2023/06/01 05:34:25;;;;;;;0.00;0.00;;;12.10;80.00;;;;;;5030760;28;20041;-70
2023/06/01 05:36:51;;;;;;;0.00;0.00;;;12.10;80.10;;;;;;5013459;28;20045;-70
2023/06/01 05:39:16;;;;;;;0.00;0.00;;;12.10;80.10;;;;;;5018890;28;20072;-68
2023/06/01 05:41:42;;;;;;;0.00;0.00;;;12.10;80.00;;;;;;5031683;28;20033;-67
2023/06/01 05:44:08;;;;;;;0.00;0.00;;;12.10;80.00;;;;;;5003948;28;20052;-68
2023/06/01 05:46:33;;;;;;;0.10;0.10;;;12.20;80.00;;;;;;5027432;28;20045;-70
2023/06/01 05:49:00;;;;;;;0.05;0.05;;;12.20;79.90;;;;;;5031644;28;20061;-69
2023/06/01 05:51:25;;;;;;;0.00;0.00;;;12.20;79.80;;;;;;5014043;28;20045;-70
2023/06/01 05:53:51;;;;;;;0.00;0.00;;;12.20;79.80;;;;;;5031772;28;20132;-71
2023/06/01 05:56:17;;;;;;;0.00;0.00;;;12.20;79.60;;;;;;5027998;28;20115;-69
2023/06/01 05:58:43;;;;;;;0.00;0.00;;;12.20;79.60;;;;;;5029697;28;20462;-69
2023/06/01 06:01:10;;;;;;;0.52;0.52;;;12.20;79.30;;;;;;5030550;28;20084;-67
2023/06/01 06:03:36;;;;;;;7.13;0.65;;;12.20;79.10;;;;;;5011972;28;20038;-68
2023/06/01 06:06:02;;;;;;;0.00;0.00;;;12.30;79.20;;;;;;5012938;28;20053;-68
2023/06/01 06:08:29;;;;;;;0.00;0.00;;;12.20;78.80;;;;;;5030444;28;20053;-67
2023/06/01 06:10:54;;;;;;;0.40;0.40;;;12.30;79.10;;;;;;5029444;28;20037;-64
2023/06/01 06:13:20;;;;;;;0.00;0.00;;;12.30;79.10;;;;;;5027690;28;20124;-66
2023/06/01 06:15:45;;;;;;;0.00;0.00;;;12.30;79.00;;;;;;5019818;28;20069;-68
2023/06/01 06:18:11;;;;;;;0.00;0.00;;;12.30;78.80;;;;;;5013332;28;20041;-67
2023/06/01 06:20:36;;;;;;;0.00;0.00;;;12.30;78.80;;;;;;5029171;28;20100;-62
2023/06/01 06:23:02;;;;;;;0.00;0.00;;;12.40;78.80;;;;;;5023054;28;20045;-63
2023/06/01 06:25:27;;;;;;;0.00;0.00;;;12.40;78.70;;;;;;5025876;28;20042;-63
2023/06/01 06:27:53;;;;;;;0.00;0.00;;;12.50;78.30;;;;;;5028952;28;20131;-63
2023/06/01 06:30:19;;;;;;;0.00;0.00;;;12.60;78.90;;;;;;5008577;28;20044;-63
2023/06/01 06:32:44;;;;;;;0.00;0.00;;;12.70;79.20;;;;;;5022647;28;20100;-63
2023/06/01 06:35:13;;;;;;;0.00;0.00;;;12.90;78.70;;;;;;5025405;28;20061;-63
2023/06/01 06:37:40;;;;;;;0.00;0.00;;;13.00;77.90;;;;;;5028111;28;20045;-66
2023/06/01 06:40:06;;;;;;;0.00;0.00;;;13.00;77.30;;;;;;5027188;28;20041;-67
2023/06/01 06:42:32;;;;;;;0.00;0.00;;;12.90;77.50;;;;;;5028855;28;20064;-67
2023/06/01 06:44:57;;;;;;;0.05;0.05;;;12.90;77.50;;;;;;5009839;28;20038;-67
2023/06/01 06:47:24;;;;;;;0.00;0.00;;;12.80;77.50;;;;;;5028717;28;20698;-69
2023/06/01 06:49:51;;;;;;;0.00;0.00;;;12.80;77.70;;;;;;5030313;28;20037;-68
2023/06/01 06:52:16;;;;;;;0.10;0.10;;;12.80;77.80;;;;;;5027137;28;20053;-67
2023/06/01 06:54:43;;;;;;;1.33;1.08;;;12.80;77.80;;;;;;5029385;28;20921;-68
2023/06/01 06:57:09;;;;;;;0.00;0.00;;;12.80;77.90;;;;;;5029759;28;20598;-68
2023/06/01 06:59:35;;;;;;;0.00;0.00;;;12.80;77.80;;;;;;5024617;28;20045;-65
2023/06/01 07:02:01;;;;;;;0.00;0.00;;;12.80;78.10;;;;;;5006808;28;20089;-66
2023/06/01 07:04:28;;;;;;;0.00;0.00;;;13.00;78.10;;;;;;5029210;28;20474;-66
2023/06/01 07:06:53;;;;;;;1.45;0.95;;;13.00;77.20;;;;;;5011145;28;20707;-67
2023/06/01 07:09:19;;;;;;;0.00;0.00;;;13.00;77.30;;;;;;5021830;28;20080;-67
2023/06/01 07:11:45;;;;;;;0.00;0.00;;;13.00;76.80;;;;;;5025832;28;20044;-66
2023/06/01 07:14:11;;;;;;;2.17;0.80;;;13.00;77.30;;;;;;5023983;28;20067;-65
2023/06/01 07:16:36;;;;;;;0.00;0.00;;;13.10;77.70;;;;;;5022741;28;20050;-66
2023/06/01 07:19:02;;;;;;;0.00;0.00;;;13.10;77.40;;;;;;5015620;28;20045;-66
2023/06/01 07:21:28;;;;;;;0.00;0.00;;;13.10;77.30;;;;;;5025305;28;20057;-66
2023/06/01 07:23:54;;;;;;;0.03;0.03;;;13.00;77.30;;;;;;5027765;28;20036;-66
2023/06/01 07:26:20;;;;;;;0.00;0.00;;;13.00;77.50;;;;;;5005136;28;20099;-67
2023/06/01 07:28:46;;;;;;;0.00;0.00;;;12.90;77.60;;;;;;5023692;28;20116;-66
2023/06/01 07:31:11;;;;;;;0.00;0.00;;;12.80;77.80;;;;;;5002379;28;20072;-66
2023/06/01 07:33:37;;;;;;;0.00;0.00;;;12.80;78.10;;;;;;5027988;28;20038;-66
2023/06/01 07:36:06;;;;;;;0.00;0.00;;;12.80;78.20;;;;;;5010258;28;20060;-67
2023/06/01 07:38:32;;;;;;;15.23;1.98;;;12.80;78.10;;;;;;5009225;28;20080;-67
2023/06/01 07:40:58;;;;;;;0.00;0.00;;;12.80;78.00;;;;;;5013036;28;20037;-67
2023/06/01 07:43:24;;;;;;;0.00;0.00;;;12.70;78.40;;;;;;4995407;28;20052;-67
2023/06/01 07:45:49;;;;;;;0.00;0.00;;;12.80;78.10;;;;;;5010603;28;20057;-66
2023/06/01 07:48:16;;;;;;;0.00;0.00;;;12.80;78.20;;;;;;5028457;28;20161;-66
2023/06/01 07:50:41;;;;;;;0.00;0.00;;;12.80;78.20;;;;;;5029849;28;20053;-67
2023/06/01 07:53:07;;;;;;;0.10;0.10;;;12.90;78.40;;;;;;5011805;28;20060;-67
2023/06/01 07:55:33;;;;;;;0.00;0.00;;;12.80;78.60;;;;;;5028365;28;20049;-67
2023/06/01 07:57:58;;;;;;;0.00;0.00;;;12.80;78.70;;;;;;5022824;28;20380;-66
2023/06/01 08:00:25;;;;;;;0.00;0.00;;;12.90;78.60;;;;;;5009120;28;20132;-67
2023/06/01 08:02:52;;;;;;;0.00;0.00;;;12.90;78.80;;;;;;5025731;28;20037;-66
2023/06/01 08:05:18;;;;;;;0.00;0.00;;;12.90;79.50;;;;;;5010243;28;20399;-67
2023/06/01 08:07:45;;;;;;;0.00;0.00;;;12.90;80.50;;;;;;5007433;28;20053;-67
2023/06/01 08:10:13;;;;;;;0.00;0.00;;;12.80;80.30;;;;;;5020787;28;20053;-67
2023/06/01 08:12:40;;;;;;;0.00;0.00;;;12.70;80.40;;;;;;5026080;28;20049;-67
2023/06/01 08:15:06;;;;;;;0.00;0.00;;;12.80;80.50;;;;;;5002799;28;20136;-67
2023/06/01 08:17:31;;;;;;;0.00;0.00;;;12.80;80.70;;;;;;5010027;28;20053;-67
2023/06/01 08:19:57;;;;;;;0.00;0.00;;;12.80;80.60;;;;;;5019975;28;20568;-67
2023/06/01 08:22:23;;;;;;;0.00;0.00;;;12.80;81.20;;;;;;4997450;28;20053;-66
2023/06/01 08:24:51;;;;;;;0.00;0.00;;;12.80;80.90;;;;;;5025327;28;20053;-67
2023/06/01 08:27:22;;;;;;;0.00;0.00;;;13.00;80.70;;;;;;5018713;28;20125;-67
2023/06/01 08:29:49;;;;;;;0.00;0.00;;;13.00;80.40;;;;;;5012524;28;20089;-67
2023/06/01 08:32:15;;;;;;;0.00;0.00;;;12.90;80.40;;;;;;5027002;28;20085;-67
2023/06/01 08:34:44;;;;;;;0.00;0.00;;;12.90;80.40;;;;;;5027721;28;20072;-65
2023/06/01 08:37:10;;;;;;;0.50;0.50;;;12.80;80.30;;;;;;5025886;28;20037;-67
2023/06/01 08:39:35;;;;;;;0.00;0.00;;;12.80;80.10;;;;;;5010646;28;20060;-66
2023/06/01 08:42:15;;;;;;;0.00;0.00;;;12.80;80.00;;;;;;5024980;28;20053;-66
2023/06/01 08:44:41;;;;;;;0.00;0.00;;;12.80;80.20;;;;;;5007817;28;20058;-66
2023/06/01 08:47:08;;;;;;;0.00;0.00;;;12.80;80.40;;;;;;5002083;28;20124;-66
2023/06/01 08:49:35;;;;;;;0.00;0.00;;;12.80;80.30;;;;;;5009146;28;20053;-66
2023/06/01 08:52:08;;;;;;;0.00;0.00;;;12.90;80.10;;;;;;5026833;28;20049;-67
2023/06/01 08:54:35;;;;;;;0.00;0.00;;;12.80;79.90;;;;;;5020679;28;20541;-66
2023/06/01 08:57:02;;;;;;;0.00;0.00;;;12.80;79.50;;;;;;5002445;28;20041;-66
2023/06/01 08:59:30;;;;;;;0.00;0.00;;;12.90;79.70;;;;;;5020883;28;20137;-67
2023/06/01 09:01:57;;;;;;;0.00;0.00;;;12.90;79.30;;;;;;4981870;28;20069;-66
2023/06/01 09:04:22;;;;;;;0.00;0.00;;;12.90;79.20;;;;;;5025390;28;20058;-66
2023/06/01 09:06:48;;;;;;;0.00;0.00;;;13.00;78.90;;;;;;5021674;28;20451;-66
2023/06/01 09:09:14;;;;;;;0.00;0.00;;;13.10;78.20;;;;;;5016152;28;20056;-67
2023/06/01 09:11:40;;;;;;;0.00;0.00;;;13.00;78.00;;;;;;5025033;28;20041;-68
2023/06/01 09:14:22;;;;;;;0.00;0.00;;;13.00;77.80;;;;;;5025550;28;20076;-67
2023/06/01 09:16:49;;;;;;;0.43;0.25;;;13.10;77.90;;;;;;5031497;28;20064;-68
2023/06/01 09:19:15;;;;;;;0.00;0.00;;;13.10;78.00;;;;;;5019360;28;20767;-67
2023/06/01 09:21:56;;;;;;;0.00;0.00;;;13.10;77.80;;;;;;5025690;28;20563;-67
2023/06/01 09:24:22;;;;;;;0.70;0.60;;;13.10;78.00;;;;;;5023059;28;20053;-67
2023/06/01 09:26:51;;;;;;;0.00;0.00;;;13.10;77.70;;;;;;5031144;28;20088;-65
2023/06/01 09:29:17;;;;;;;0.00;0.00;;;13.20;77.60;;;;;;5013710;28;20550;-67
2023/06/01 09:31:47;;;;;;;0.00;0.00;;;13.20;77.80;;;;;;5024203;28;20125;-67
2023/06/01 09:34:20;;;;;;;0.10;0.10;;;13.20;77.80;;;;;;5022747;28;20061;-67
2023/06/01 09:36:47;;;;;;;0.00;0.00;;;13.30;77.80;;;;;;5011190;28;20056;-68
2023/06/01 09:39:15;;;;;;;0.00;0.00;;;13.30;77.70;;;;;;5011840;28;20058;-68
2023/06/01 09:41:58;;;;;;;0.00;0.00;;;13.30;77.50;;;;;;5011792;28;20046;-68
2023/06/01 09:44:29;;;;;;;0.00;0.00;;;13.30;77.50;;;;;;5018641;28;20510;-68
2023/06/01 09:46:59;;;;;;;0.00;0.00;;;13.30;77.10;;;;;;5031649;28;20049;-67
2023/06/01 09:49:32;;;;;;;0.20;0.20;;;13.30;76.90;;;;;;5030605;28;20076;-68
2023/06/01 09:52:07;;;;;;;0.00;0.00;;;13.40;77.20;;;;;;4996847;28;20049;-68
2023/06/01 09:54:36;;;;;;;0.00;0.00;;;13.40;77.00;;;;;;4988666;28;20107;-67
2023/06/01 09:57:02;;;;;;;0.25;0.20;;;13.40;77.00;;;;;;4996984;28;20064;-69
2023/06/01 09:59:29;;;;;;;0.00;0.00;;;13.40;76.90;;;;;;5031415;28;20136;-68
2023/06/01 10:01:58;;;;;;;0.00;0.00;;;13.40;76.60;;;;;;5031463;28;20057;-67
2023/06/01 10:04:26;;;;;;;0.00;0.00;;;13.40;76.80;;;;;;5013558;28;20567;-68
2023/06/01 10:06:54;;;;;;;0.43;0.43;;;13.50;76.70;;;;;;5030670;28;20045;-69
2023/06/01 10:09:24;;;;;;;0.00;0.00;;;13.50;76.80;;;;;;5030694;28;20049;-69
2023/06/01 10:11:55;;;;;;;0.20;0.20;;;13.50;76.70;;;;;;5012983;28;20077;-68
2023/06/01 10:14:22;;;;;;;0.03;0.03;;;13.50;76.80;;;;;;5018368;28;20049;-68
2023/06/01 10:16:51;;;;;;;0.00;0.00;;;13.50;76.80;;;;;;5029574;28;20521;-68
2023/06/01 10:19:17;;;;;;;0.00;0.00;;;13.50;76.90;;;;;;5030682;28;20049;-68
2023/06/01 10:21:47;;;;;;;21.98;0.85;;;13.60;77.00;;;;;;5010602;28;20056;-69
2023/06/01 10:24:19;;;;;;;0.10;0.10;;;13.60;76.90;;;;;;5029976;28;20050;-66
2023/06/01 10:27:07;;;;;;;0.00;0.00;;;13.60;76.90;;;;;;5019050;28;20698;-66
2023/06/01 10:29:33;;;;;;;0.00;0.00;;;13.60;76.40;;;;;;5026205;28;20464;-66
2023/06/01 10:31:59;;;;;;;0.00;0.00;;;13.60;76.60;;;;;;4999848;28;20111;-67
2023/06/01 10:34:46;;;;;;;0.00;0.00;;;13.60;76.50;;;;;;5000347;28;20046;-67
2023/06/01 10:37:13;;;;;;;0.13;0.13;;;13.60;76.70;;;;;;5029757;28;20114;-67
2023/06/01 10:39:39;;;;;;;0.00;0.00;;;13.60;76.60;;;;;;5012065;28;20054;-67
2023/06/01 10:42:31;;;;;;;0.00;0.00;;;13.60;76.50;;;;;;5030085;28;20045;-67
2023/06/01 10:44:56;;;;;;;0.00;0.00;;;13.70;76.70;;;;;;4995314;28;20140;-67
2023/06/01 10:47:22;;;;;;;0.00;0.00;;;13.70;76.40;;;;;;5029929;28;20128;-67
2023/06/01 10:49:50;;;;;;;0.00;0.00;;;13.70;76.40;;;;;;5011559;28;20572;-66
2023/06/01 10:52:38;;;;;;;0.55;0.55;;;13.80;76.30;;;;;;5028852;28;20132;-66
2023/06/01 10:55:06;;;;;;;0.00;0.00;;;13.80;76.10;;;;;;5029540;28;20060;-66
2023/06/01 10:57:43;;;;;;;0.00;0.00;;;13.80;76.20;;;;;;5029938;28;20045;-66
2023/06/01 11:00:23;;;;;;;0.00;0.00;;;13.80;76.00;;;;;;5029544;28;20057;-66
2023/06/01 11:03:00;;;;;;;0.00;0.00;;;13.80;76.30;;;;;;5029146;28;20053;-66
2023/06/01 11:05:48;;;;;;;0.43;0.43;;;13.90;76.40;;;;;;5029467;28;20132;-66
2023/06/01 11:08:29;;;;;;;0.00;0.00;;;13.90;76.50;;;;;;5011230;28;20050;-66
2023/06/01 11:11:06;;;;;;;;;;;14.10;76.20;;;;;;5027925;28;20045;-66
2023/06/01 11:13:35;;;;;;;0.00;0.00;;;14.10;75.90;;;;;;4995530;28;19921;-66
2023/06/01 11:16:04;;;;;;;0.00;0.00;;;14.00;75.30;;;;;;5014097;28;20054;-66
2023/06/01 11:18:58;;;;;;;0.00;0.00;;;14.10;75.80;;;;;;5023159;28;20064;-66
2023/06/01 11:21:28;;;;;;;0.00;0.00;;;14.10;75.40;;;;;;5007857;28;20056;-66
2023/06/01 11:23:56;;;;;;;0.00;0.00;;;14.10;75.80;;;;;;5009048;28;20050;-67
2023/06/01 11:26:30;;;;;;;0.00;0.00;;;14.10;75.70;;;;;;5017394;28;20533;-66
2023/06/01 11:29:07;;;;;;;0.00;0.00;;;14.10;75.50;;;;;;5028081;28;20509;-66
2023/06/01 11:31:52;;;;;;;0.00;0.00;;;14.10;75.60;;;;;;5010730;28;20506;-64
2023/06/01 11:34:19;;;;;;;0.00;0.00;;;14.10;75.50;;;;;;5017893;28;20061;-66
2023/06/01 11:36:48;;;;;;;0.00;0.00;;;14.20;75.70;;;;;;5028651;28;20041;-66
2023/06/01 11:39:24;;;;;;;0.00;0.00;;;14.30;75.50;;;;;;5029536;28;20057;-66
2023/06/01 11:42:05;;;;;;;0.00;0.00;;;14.20;75.30;;;;;;5027384;28;20124;-66
2023/06/01 11:44:31;;;;;;;0.00;0.00;;;14.20;75.20;;;;;;5028458;28;20045;-66
2023/06/01 11:46:58;;;;;;;0.00;0.00;;;14.20;75.40;;;;;;5006744;28;20049;-65
2023/06/01 11:49:24;;;;;;;0.22;0.22;;;14.10;75.30;;;;;;4996594;28;20056;-65
2023/06/01 11:51:51;;;;;;;0.00;0.00;;;14.10;75.20;;;;;;5024471;28;20056;-62
2023/06/01 11:54:21;;;;;;;0.03;0.03;;;14.10;75.70;;;;;;5011303;28;20054;-62
2023/06/01 11:56:46;;;;;;;0.00;0.00;;;14.20;75.00;;;;;;5009314;28;20056;-65
2023/06/01 11:59:12;;;;;;;0.10;0.10;;;14.10;74.90;;;;;;5014376;28;20033;-65
2023/06/01 12:01:45;;;;;;;0.00;0.00;;;14.10;75.00;;;;;;5016397;28;20034;-65
2023/06/01 12:04:15;;;;;;;0.00;0.00;;;14.10;73.90;;;;;;5029280;28;20140;-65
2023/06/01 12:06:42;;;;;;;0.00;0.00;;;14.10;74.40;;;;;;5015528;28;20120;-65
2023/06/01 12:09:09;;;;;;;0.00;0.00;;;14.10;74.10;;;;;;5009741;28;20077;-65
2023/06/01 12:11:35;;;;;;;0.22;0.22;;;14.10;73.90;;;;;;5013821;28;20087;-65
2023/06/01 12:14:01;;;;;;;0.00;0.00;;;14.10;73.90;;;;;;5026505;28;20496;-66
2023/06/01 12:17:02;;;;;;;0.00;0.00;;;14.10;74.20;;;;;;5025263;28;20057;-65
2023/06/01 12:19:28;;;;;;;0.00;0.00;;;14.10;73.30;;;;;;5022688;28;20058;-66
2023/06/01 12:21:56;;;;;;;0.00;0.00;;;14.20;73.40;;;;;;5016096;28;20045;-65
2023/06/01 12:24:32;;;;;;;0.00;0.00;;;14.10;71.70;;;;;;5027166;28;20042;-66
2023/06/01 12:26:58;;;;;;;0.00;0.00;;;14.10;72.60;;;;;;5027227;28;20069;-66
2023/06/01 12:29:59;;;;;;;0.00;0.00;;;14.10;72.60;;;;;;5027441;28;20052;-65
2023/06/01 12:32:37;;;;;;;0.00;0.00;;;14.10;72.70;;;;;;4922723;29;20083;-66
2023/06/01 12:35:06;;;;;;;0.00;0.00;;;14.20;72.50;;;;;;5000701;28;20160;-65
2023/06/01 12:37:32;;;;;;;0.00;0.00;;;14.10;72.50;;;;;;5005583;28;20056;-65
2023/06/01 12:39:59;;;;;;;0.00;0.00;;;14.10;72.70;;;;;;5020870;28;20049;-65
2023/06/01 12:42:38;;;;;;;0.00;0.00;;;14.10;72.80;;;;;;5005800;28;20156;-66
2023/06/01 12:45:05;;;;;;;0.00;0.00;;;14.10;72.20;;;;;;5020029;28;20160;-65
2023/06/01 12:47:38;;;;;;;0.40;0.40;;;14.00;71.50;;;;;;5013360;28;20041;-65
2023/06/01 12:50:05;;;;;;;0.00;0.00;;;14.00;71.60;;;;;;4981270;28;20049;-65
2023/06/01 12:52:30;;;;;;;0.00;0.00;;;14.00;71.50;;;;;;5017222;28;20671;-66
2023/06/01 12:54:57;;;;;;;0.00;0.00;;;14.10;72.00;;;;;;5017000;28;20187;-66